AirNav   Jet Aviation Boston
 
 1109 users online  

20GA Earl L. Small Jr. Field/Stockmar Airport
Villa Rica, Georgia, USA

GOING TO VILLA RICA?


FAA INFORMATION EFFECTIVE 19 JULY 2018

Location

FAA Identifier: 20GA
Lat/Long: 33-45-23.6000N / 084-53-06.2250W
33-45.393333N / 084-53.103750W
33.7565556 / -84.8850625
(estimated)
Elevation: 1110 ft. / 338 m (estimated)
Variation: 03W (2000)
From city: 2 miles NE of VILLA RICA, GA
Time zone: UTC -4 (UTC -5 during Standard Time)
Zip code: 30180

Airport Operations

Airport use: Private use. Permission required prior to landing
Activation date: 12/1983
Control tower: no
ARTCC: ATLANTA CENTER
FSS: MACON FLIGHT SERVICE STATION
NOTAMs facility: FDC (NOTAM-D service not available)
Attendance: DAYLIGHT HOURS
Pattern altitude: 1830 ft. MSL
Wind indicator: yes
Segmented circle: no
Lights: ACTVT LIRL RY 10/28 - 122.9. VASI RY 10/28 LIGHTED WITH RY EDGE LIGHTING.
Beacon: white-green (lighted land airport)
Operates sunset to sunrise.

Airport Communications

WX AWOS-3 at PUJ (10 nm N): 126.225 (770-445-3870)
WX AWOS-3 at CTJ (15 nm SW): 118.175 (770-214-9667)
WX ASOS at FTY (18 nm E): PHONE 404-696-5660

Nearby radio navigation aids

VOR radial/distance  VOR name  Freq  Var
ATLr294/23.7ATLANTA VORTAC116.9005W
RMGr153/27.0ROME VORTAC115.4001E
PDKr261/30.1PEACHTREE VOR/DME116.6005W

 
NDB name  Hdg/Dist  Freq  Var  ID
FLANC273/12.334405WFT ..-. -
CARROLLTON051/16.827804WGPQ --. .--. --.-
CARTERSVILLE188/26.730804WEVZ . ...- --..
COWETA COUNTY347/31.223403WEQQ . --.- --.-
PECAT329/33.831605WFFC ..-. ..-. -.-.
CHERO219/35.741505WDJD -.. .--- -..
CALHOUN182/38.832305WOUK --- ..- -.-

Airport Services

Fuel available: 100LL
AVBL 24 HRS WITH CREDIT CARD.

Runway Information

Runway 10/28

Dimensions: 4500 x 50 ft. / 1372 x 15 m
Surface: asphalt
Runway edge lights: low intensity
RUNWAY 10  RUNWAY 28
Latitude: 33-45.406000N33-45.380667N
Longitude: 084-53.547667W084-52.659833W
Elevation: 1064.0 ft.1094.0 ft.
Traffic pattern: leftright
Visual slope indicator: 2-box VASI on left2-box VASI on left
Runway end identifier lights: yesyes
Touchdown point: yes, no lightsyes, no lights

Airport Ownership and Management from official FAA records

Ownership: Privately-owned
Owner: RHONDA R. SMALL
P.O. BOX 880
VILLA RICA, GA 30180
Phone 770-459-5145
Manager: RHONDA R. SMALL
P.O. BOX 880
VILLA RICA, GA 30180
Phone 770-459-5145

Airport Operational Statistics

Aircraft based on the field: 36
Single engine airplanes: 35
Helicopters: 1
    

Additional Remarks

TRANSIENT ACFT LAND AT OWN RISK

Instrument Procedures

There are no published instrument procedures at 20GA.

Some nearby airports with instrument procedures:

KPUJ - Paulding Northwest Atlanta Airport (10 nm N)
KCTJ - West Georgia Regional Airport-O V Gray Field (15 nm SW)
KFTY - Fulton County Airport-Brown Field (18 nm E)
4A4 - Polk County Airport - Cornelius Moore Field (20 nm NW)
KMGE - Dobbins Air Reserve Base (21 nm NE)
 
Loc | Ops | Rwys | IFR | FBO | Links
Com | Nav | Svcs | Stats | Notes


 
Area around 20GA (Earl L. Small Jr. Field/Stockmar Airport)
 
Road maps at: MapQuest Bing Google
 
Aerial photo
WARNING: Photo may not be current or correct
Aerial photo of 20GA (Earl L. Small Jr. Field/Stockmar Airport)
Photo by Monte
Photo taken 13-Jun-2007

Do you have a better or more recent aerial photo of Earl L. Small Jr. Field/Stockmar Airport that you would like to share? If so, please send us your photo.

 
Sectional chart

 
Airport distance calculator
Flying to Earl L. Small Jr. Field/Stockmar Airport? Find the distance to fly.

From to 20GA

Sunrise and sunset
Times for 21-Jul-2018
 Local
(UTC-4)
 Zulu
(UTC)
Morning civil twilight06:1710:17
Sunrise06:4510:45
Sunset20:4700:47
Evening civil twilight21:1501:15

Current date and time
Zulu (UTC)  21-Jul-2018 17:44:57
Local (UTC-4)  21-Jul-2018 13:44:57
 
METAR
KPUJ 
10nm N 
211735Z AUTO 00000KT 10SM SCT041 27/21 A2989 RMK AO2
KCTJ 
15nm SW 
211735Z AUTO 15007KT 10SM CLR 27/22 A2991 RMK AO2 T02660219
KFTY 
18nm E 
211653Z 17007KT 10SM SCT019 27/22 A2990 RMK AO2 SLP116 T02670222
TAF
KFTY 
18nm E 
211451Z 2115/2212 09004KT P6SM BKN015 FM211600 00000KT P6SM SCT025 FM211800 27006KT P6SM SCT040 FM212200 25006KT P6SM VCSH SCT050 FM220200 27005KT P6SM SCT250
KMGE 
21nm NE 
211445Z 2114/2219 17009KT 9999 SCT060 QNH2988INS BECMG 2117/2118 30012G18KT 8000 -SHRA SCT030 BKN050 QNH2982INS TEMPO 2120/2202 30025G35KT 4800 -TSRA OVC030CB BECMG 2201/2202 28006KT 9999 NSW SCT050 QNH2983INS BECMG 2214/2215 27012G18KT 9999 SCT040 BKN060 QNH2980INS TX34/2120Z TN23/2213Z
KRYY 
21nm NE 
211258Z 2113/2212 VRB03KT P6SM SCT035 FM211600 32006KT P6SM BKN040 FM211800 25010KT P6SM SCT050 PROB30 2122/2202 4SM TSRA BKN025CB FM220200 27005KT P6SM SCT250
KATL 
23nm E 
211546Z 2116/2218 00000KT P6SM BKN015 FM211800 26005KT P6SM SCT030 FM212000 28005KT P6SM VCSH SCT045 FM220200 27006KT P6SM SCT250 FM221500 30011KT P6SM SCT040 SCT250
NOTAMs
Click for the latest NOTAMs
NOTAMs are issued by the DoD/FAA and will open in a separate window not controlled by AirNav.

 

 
 

FBO, Fuel Providers, and Aircraft Ground Support

  
 Business Name 
 
 Contact 
 
 Services / Description 
 
Fuel Prices
 
Comments
  
Flying S Aviation 770-459-5145
[web site]
[email]
Aviation fuel, Aircraft parking (ramp or tiedown), Hangars, Hangar leasing / sales, Passenger terminal and lounge, Aircraft maintenance, ...

More info about Flying S Aviation
100LL
SS $4.15 
GUARANTEED
 
   write
SS=Self service
Update Fuel Prices
 

Would you like to see your business listed on this page?

 If your business provides an interesting product or service to pilots, flight crews, aircraft, or users of the Earl L. Small Jr. Field/Stockmar Airport, you should consider listing it here.  To start the listing process, click on the button below
 
Add a business
 

Other Pages about Earl L. Small Jr. Field/Stockmar Airport

Update a link
 
Copyright © AirNav, LLC. All rights reserved. Privacy Policy  Contact